Time;durP1;ratioP1;P1;durP2;ratioP2;P2;SDS_P1;SDS_P2;PMS_P1;PMS_P2;Temp;Humidity;BMP_temperature;BMP_pressure;BME280_temperature;BME280_humidity;BME280_pressure;Samples;Min_cycle;Max_cycle;Signal;HPM_P1;HPM_P2
2022/11/16 00:00:36;;;;;;;;;2.33;1.33;;;;;11.55;73.77;99725.66;6259124;22;45213;-89
2022/11/16 00:03:05;;;;;;;;;3.00;3.00;;;;;11.58;73.86;99737.91;6259386;22;45181;-88
2022/11/16 00:05:31;;;;;;;;;2.00;2.00;;;;;11.45;73.94;99726.78;6259669;22;46932;-89
2022/11/16 00:08:12;;;;;;;;;;;;;;;;;;;;;
2022/11/16 00:10:41;;;;;;;;;1.33;1.00;;;;;11.48;74.18;99731.97;6287241;22;69448;-89
2022/11/16 00:13:08;;;;;;;;;2.33;1.67;;;;;11.47;73.92;99731.09;6257433;22;45864;-89
2022/11/16 00:15:33;;;;;;;;;2.67;1.00;;;;;11.56;73.90;99744.97;6285604;22;45287;-89
2022/11/16 00:18:01;;;;;;;;;2.00;1.00;;;;;11.56;73.99;99748.47;6258593;22;45410;-89
2022/11/16 00:20:27;;;;;;;;;1.00;1.00;;;;;11.54;74.15;99742.34;6258472;22;45219;-89
2022/11/16 00:22:53;;;;;;;;;3.33;0.67;;;;;11.53;74.09;99745.03;6258559;22;45227;-89
2022/11/16 00:25:18;;;;;;;;;1.67;1.67;;;;;11.49;74.12;99741.59;6258091;22;47124;-89
2022/11/16 00:27:47;;;;;;;;;2.67;2.33;;;;;11.50;74.13;99738.06;6258419;22;45639;-89
2022/11/16 00:30:15;;;;;;;;;2.00;1.00;;;;;11.42;74.20;99732.13;6258535;22;45340;-87
2022/11/16 00:32:41;;;;;;;;;1.00;1.00;;;;;11.30;74.02;99717.44;6258518;22;45509;-89
2022/11/16 00:35:10;;;;;;;;;2.00;2.00;;;;;11.45;73.98;99745.22;6257620;22;46636;-88
2022/11/16 00:37:35;;;;;;;;;1.00;1.00;;;;;11.39;74.35;99735.69;6257724;22;45314;-88
2022/11/16 00:40:04;;;;;;;;;1.00;1.00;;;;;11.36;74.06;99726.97;6257952;22;45429;-88
2022/11/16 00:42:29;;;;;;;;;5.00;2.67;;;;;11.34;74.46;99729.66;6257791;22;45414;-89
2022/11/16 00:44:55;;;;;;;;;2.00;2.00;;;;;11.33;74.14;99727.03;6285902;22;45524;-88
2022/11/16 00:47:21;;;;;;;;;1.00;1.00;;;;;11.40;74.27;99752.38;6257260;22;45351;-89
2022/11/16 00:49:46;;;;;;;;;1.67;1.67;;;;;11.25;74.39;99717.56;6258000;22;45295;-89
2022/11/16 00:52:12;;;;;;;;;4.33;2.00;;;;;11.36;74.38;99742.78;6286196;22;44759;-88
2022/11/16 00:54:38;;;;;;;;;2.00;1.33;;;;;11.34;74.40;99742.84;6257570;22;47060;-88
2022/11/16 00:57:03;;;;;;;;;2.67;2.67;;;;;11.31;74.14;99742.03;6286634;22;45104;-88
2022/11/16 00:59:29;;;;;;;;;5.00;3.67;;;;;11.23;74.42;99726.41;6260818;22;45172;-89
2022/11/16 01:01:54;;;;;;;;;1.33;1.00;;;;;11.14;74.48;99716.06;6258288;22;45167;-88
2022/11/16 01:04:23;;;;;;;;;3.33;1.33;;;;;11.20;74.56;99732.63;6257887;22;48154;-89
2022/11/16 01:06:48;;;;;;;;;4.00;1.67;;;;;11.32;74.51;99749.03;6257878;22;45244;-89
2022/11/16 01:09:16;;;;;;;;;2.67;1.67;;;;;11.29;74.64;99730.66;6258433;22;45365;-88
2022/11/16 01:14:26;;;;;;;;;3.00;1.00;;;;;11.41;74.48;99748.81;6285592;22;44943;-89
2022/11/16 01:16:52;;;;;;;;;1.67;0.67;;;;;11.26;74.43;99706.13;6257254;22;45276;-89
2022/11/16 01:19:30;;;;;;;;;;;;;;;;;;;;;
2022/11/16 01:21:56;;;;;;;;;1.00;1.00;;;;;11.38;74.07;99712.84;6259550;22;71932;-89
2022/11/16 01:24:25;;;;;;;;;4.00;3.33;;;;;11.54;74.00;99736.22;6258011;22;47193;-89
2022/11/16 01:26:58;;;;;;;;;2.33;1.00;;;;;11.56;73.76;99750.25;6285762;22;45129;-87
2022/11/16 01:29:25;;;;;;;;;3.00;3.00;;;;;11.57;73.78;99741.41;6258386;22;45435;-90
2022/11/16 01:31:51;;;;;;;;;0.33;0.33;;;;;11.56;73.74;99731.78;6258991;22;45962;-90
2022/11/16 01:34:17;;;;;;;;;2.67;1.67;;;;;11.52;73.89;99722.19;6259956;22;47071;-89
2022/11/16 01:36:45;;;;;;;;;0.00;0.00;;;;;11.41;73.58;99706.66;6260057;22;45200;-89
2022/11/16 01:39:12;;;;;;;;;1.00;1.00;;;;;11.54;73.54;99739.72;6258447;22;45415;-89
2022/11/16 01:41:41;;;;;;;;;5.00;4.00;;;;;11.33;73.58;99703.31;6257518;22;45221;-90
2022/11/16 01:44:33;;;;;;;;;1.33;1.33;;;;;11.48;73.87;99724.91;6256940;22;47550;-89
2022/11/16 01:46:59;;;;;;;;;4.67;1.00;;;;;11.34;73.45;99710.34;6257926;22;45086;-89
2022/11/16 01:49:29;;;;;;;;;3.33;2.67;;;;;11.41;73.34;99739.16;6261474;22;45409;-90
2022/11/16 01:52:14;;;;;;;;;0.00;0.00;;;;;11.33;73.31;99730.53;6260661;22;44811;-88
2022/11/16 01:54:49;;;;;;;;;3.33;3.33;;;;;11.22;73.36;99728.16;6259618;22;47299;-89
2022/11/16 01:57:23;;;;;;;;;1.00;0.00;;;;;11.11;73.28;99710.88;6258792;22;45246;-90
2022/11/16 01:59:54;;;;;;;;;3.33;1.67;;;;;11.21;73.26;99747.50;6284879;22;45089;-90
2022/11/16 02:02:20;;;;;;;;;3.00;3.00;;;;;11.10;73.68;99727.59;6255623;22;45236;-90
2022/11/16 02:04:48;;;;;;;;;1.33;1.00;;;;;11.14;73.79;99732.72;6255797;22;46507;-89
2022/11/16 02:09:52;;;;;;;;;2.00;2.00;;;;;11.11;73.59;99726.69;6255462;22;45274;-90
2022/11/16 02:10:30;;;;;;;;;1.00;1.00;;;;;11.09;73.55;99737.22;6281936;22;45318;-90
2022/11/16 02:13:15;;;;;;;;;3.00;2.00;;;;;11.07;73.82;99732.94;6255933;22;45471;-90
2022/11/16 02:16:01;;;;;;;;;0.00;0.00;;;;;10.93;73.69;99717.41;6255768;22;46835;-91
2022/11/16 02:18:40;;;;;;;;;2.33;1.00;;;;;10.98;73.82;99726.94;6256359;22;45396;-89
2022/11/16 02:21:14;;;;;;;;;0.67;0.67;;;;;10.99;73.71;99736.59;6256171;22;45269;-87
2022/11/16 02:23:51;;;;;;;;;2.33;1.00;;;;;10.99;73.91;99733.09;6256666;22;45399;-89
2022/11/16 02:26:26;;;;;;;;;0.33;0.00;;;;;11.02;73.90;99743.56;6256296;22;47067;-89
2022/11/16 02:29:21;;;;;;;;;2.67;1.00;;;;;10.96;73.94;99731.38;6256295;22;45274;-91
2022/11/16 02:32:17;;;;;;;;;1.00;1.00;;;;;10.92;73.59;99724.44;6256255;22;45208;-90
2022/11/16 02:35:13;;;;;;;;;1.00;1.00;;;;;10.97;73.85;99741.00;6256519;22;45607;-90
2022/11/16 02:37:48;;;;;;;;;2.00;1.00;;;;;10.95;73.90;99742.81;6256674;22;47226;-90
2022/11/16 02:40:18;;;;;;;;;2.00;1.00;;;;;10.88;73.90;99733.31;6256586;22;45212;-90
2022/11/16 02:42:59;;;;;;;;;1.33;1.00;;;;;10.89;73.72;99739.44;6261232;22;45193;-91
2022/11/16 02:45:38;;;;;;;;;0.50;0.25;;;;;10.84;73.78;99739.53;6258224;22;45280;-89
2022/11/16 02:48:10;;;;;;;;;3.00;2.00;;;;;10.80;73.88;99740.53;6256742;22;46679;-89
2022/11/16 02:50:38;;;;;;;;;2.00;1.00;;;;;10.59;74.01;99699.72;6230107;22;45414;-89
2022/11/16 02:53:08;;;;;;;;;0.67;0.00;;;;;10.69;74.20;99716.16;6256140;22;45379;-88
2022/11/16 02:55:35;;;;;;;;;2.67;1.00;;;;;10.72;74.01;99727.50;6255956;22;45247;-90
2022/11/16 02:58:05;;;;;;;;;0.33;0.00;;;;;10.63;74.00;99705.75;6255444;22;48007;-90
2022/11/16 03:00:48;;;;;;;;;0.75;0.75;;;;;10.59;73.99;99700.56;6255276;22;45196;-91
2022/11/16 03:03:36;;;;;;;;;1.00;1.00;;;;;10.74;73.86;99728.31;6255835;22;45873;-89
2022/11/16 03:06:10;;;;;;;;;2.00;2.00;;;;;10.69;73.71;99722.31;6255831;22;45485;-89
2022/11/16 03:08:41;;;;;;;;;0.75;0.25;;;;;10.80;73.78;99719.47;6256991;22;46794;-90
2022/11/16 03:14:01;;;;;;;;;1.25;1.25;;;;;10.74;73.67;99702.00;6283503;22;45356;-89
2022/11/16 03:16:37;;;;;;;;;1.00;1.00;;;;;10.91;73.63;99719.22;6255435;22;45630;-90
2022/11/16 03:19:09;;;;;;;;;1.75;0.75;;;;;10.93;73.50;99714.78;6256969;22;47989;-89
2022/11/16 03:21:53;;;;;;;;;2.50;2.00;;;;;10.93;73.54;99701.59;6257304;22;45272;-88
2022/11/16 03:24:19;;;;;;;;;1.75;1.75;;;;;10.90;73.19;99685.88;6257664;22;45204;-90
2022/11/16 03:27:19;;;;;;;;;2.67;0.33;;;;;11.01;73.11;99692.66;6284954;22;45141;-89
2022/11/16 03:29:57;;;;;;;;;2.00;1.00;;;;;10.98;72.97;99689.19;6258306;22;46941;-90
2022/11/16 03:32:41;;;;;;;;;1.00;0.00;;;;;10.96;73.29;99693.63;6256110;22;45212;-87
2022/11/16 03:35:16;;;;;;;;;1.33;1.33;;;;;10.77;72.83;99667.72;6258560;22;45240;-89
2022/11/16 03:37:45;;;;;;;;;3.00;3.00;;;;;10.91;73.08;99691.13;6258009;22;45176;-89
2022/11/16 03:40:12;;;;;;;;;1.00;0.00;;;;;10.84;72.93;99683.38;6256636;22;47079;-89
2022/11/16 03:42:40;;;;;;;;;1.00;0.00;;;;;10.87;73.12;99686.81;6257279;22;45319;-90
2022/11/16 03:45:07;;;;;;;;;1.00;0.00;;;;;10.74;73.24;99662.50;6258070;22;45117;-90
2022/11/16 03:47:32;;;;;;;;;1.00;1.00;;;;;10.93;72.97;99684.06;6257135;22;45589;-90
2022/11/16 03:49:58;;;;;;;;;1.25;1.00;;;;;10.94;73.01;99683.16;6258476;22;48378;-88
2022/11/16 03:52:24;;;;;;;;;3.67;3.67;;;;;10.89;73.00;99671.84;6258180;22;45605;-90
2022/11/16 03:54:49;;;;;;;;;1.00;1.00;;;;;10.90;72.94;99675.34;6258618;22;45199;-89
2022/11/16 03:57:17;;;;;;;;;1.67;0.00;;;;;10.88;73.11;99674.50;6257487;22;45165;-90
2022/11/16 03:59:44;;;;;;;;;1.67;1.00;;;;;10.86;72.92;99673.69;6258313;22;47441;-90
2022/11/16 04:02:10;;;;;;;;;1.33;0.00;;;;;10.85;72.95;99672.81;6257705;22;45336;-89
2022/11/16 04:28:12;;;;;;;;;0.00;0.00;;;;;10.66;73.20;99664.44;6286986;22;45321;-89
2022/11/16 04:29:24;;;;;;;;;0.33;0.33;;;;;10.65;73.45;99661.88;6286270;22;45167;-89
2022/11/16 04:40:03;;;;;;;;;0.25;0.25;;;;;10.45;73.66;99642.09;6286171;22;45144;-88
2022/11/16 04:42:29;;;;;;;;;2.00;1.00;;;;;10.38;73.94;99630.81;6255863;22;47729;-89
2022/11/16 04:47:44;;;;;;;;;2.67;1.67;;;;;10.46;74.14;99635.94;6283535;22;45409;-90
2022/11/16 04:50:09;;;;;;;;;1.00;1.00;;;;;10.69;74.19;99659.13;6255167;22;45456;-90
2022/11/16 04:52:35;;;;;;;;;0.33;0.00;;;;;10.62;74.08;99636.47;6255667;22;47791;-91
2022/11/16 04:55:01;;;;;;;;;0.67;0.67;;;;;10.75;74.36;99645.84;6256811;22;45177;-92
2022/11/16 04:57:26;;;;;;;;;4.67;3.00;;;;;10.86;74.04;99648.22;6256447;22;44581;-89
2022/11/16 05:00:03;;;;;;;;;2.33;2.33;;;;;10.91;74.11;99658.66;6284539;22;45205;-91
2022/11/16 05:02:31;;;;;;;;;2.00;1.00;;;;;10.84;74.45;99631.59;6283865;22;45549;-90
2022/11/16 05:04:56;;;;;;;;;1.00;0.33;;;;;10.98;74.06;99649.69;6256039;22;45355;-90
2022/11/16 05:07:22;;;;;;;;;0.00;0.00;;;;;11.00;74.17;99659.31;6284075;22;45342;-91
2022/11/16 05:09:48;;;;;;;;;2.25;2.00;;;;;10.90;74.27;99630.56;6255918;22;45279;-89
2022/11/16 05:12:24;;;;;;;;;1.33;1.33;;;;;11.08;74.21;99647.72;6255670;22;47318;-89
2022/11/16 05:14:50;;;;;;;;;3.00;1.33;;;;;11.05;74.17;99635.50;6284062;22;45547;-89
2022/11/16 05:17:17;;;;;;;;;2.00;1.67;;;;;10.97;74.04;99625.13;6255328;22;45192;-88
2022/11/16 05:22:26;;;;;;;;;2.00;1.00;;;;;11.00;73.78;99637.38;6284844;22;45232;-89
2022/11/16 05:24:52;;;;;;;;;1.00;1.00;;;;;10.97;73.95;99643.56;6232054;22;45209;-88
2022/11/16 05:27:20;;;;;;;;;3.67;1.00;;;;;10.85;73.97;99611.38;6257963;22;44630;-89
2022/11/16 05:29:48;;;;;;;;;1.67;1.67;;;;;10.98;73.97;99634.75;6232266;22;45170;-89
2022/11/16 05:32:17;;;;;;;;;1.00;1.00;;;;;10.96;74.08;99635.69;6256716;22;47174;-89
2022/11/16 05:34:42;;;;;;;;;1.33;1.00;;;;;10.93;74.09;99631.41;6257321;22;45192;-89
2022/11/16 05:37:08;;;;;;;;;2.00;1.00;;;;;10.73;73.94;99608.13;6229588;22;45334;-90
2022/11/16 05:39:34;;;;;;;;;1.25;1.25;;;;;10.82;73.87;99622.84;6255996;22;45180;-89
2022/11/16 05:42:00;;;;;;;;;4.50;2.00;;;;;10.69;74.17;99611.75;6254687;22;48184;-90
2022/11/16 05:44:26;;;;;;;;;2.25;2.25;;;;;10.69;74.01;99601.22;6255644;22;45784;-89
2022/11/16 05:46:54;;;;;;;;;1.00;1.00;;;;;10.68;74.37;99603.88;6255833;22;45320;-89
2022/11/16 05:49:20;;;;;;;;;1.00;1.00;;;;;10.69;74.38;99609.13;6254778;22;45308;-90
2022/11/16 05:51:46;;;;;;;;;2.00;2.00;;;;;10.72;74.36;99611.69;6254254;22;47755;-89
2022/11/16 05:54:18;;;;;;;;;3.00;1.00;;;;;10.65;74.34;99602.19;6255674;22;45117;-87
2022/11/16 05:56:47;;;;;;;;;2.00;1.00;;;;;10.75;74.32;99619.50;6281912;22;45402;-89
2022/11/16 05:59:14;;;;;;;;;1.25;1.00;;;;;10.79;74.70;99631.69;6281272;22;45222;-89
2022/11/16 06:01:39;;;;;;;;;1.00;1.00;;;;;10.82;74.54;99639.53;6281094;22;46556;-88
2022/11/16 06:04:05;;;;;;;;;2.00;1.75;;;;;10.68;74.88;99609.16;6253504;22;45126;-90
2022/11/16 06:06:33;;;;;;;;;3.00;1.00;;;;;10.74;74.80;99615.13;6253200;22;45254;-90
2022/11/16 06:09:32;;;;;;;;;0.00;0.00;;;;;10.83;74.65;99629.88;6253514;22;45292;-90
2022/11/16 06:12:10;;;;;;;;;;;;;;;;;;;;;
2022/11/16 06:14:39;;;;;;;;;1.00;1.00;;;;;10.64;75.07;99605.72;6281243;22;72851;-90
2022/11/16 06:17:04;;;;;;;;;1.50;1.50;;;;;10.73;74.78;99626.56;6254164;22;45214;-89
2022/11/16 06:20:09;;;;;;;;;1.75;1.00;;;;;10.82;75.08;99636.03;6253509;22;45470;-90
2022/11/16 06:22:48;;;;;;;;;;;;;;;;;;;;;
2022/11/16 06:25:20;;;;;;;;;1.67;1.00;;;;;10.82;75.10;99623.75;6280296;22;71360;-90
2022/11/16 06:27:52;;;;;;;;;1.67;1.00;;;;;10.73;74.99;99605.50;6253923;22;45300;-89
2022/11/16 06:30:21;;;;;;;;;3.00;0.75;;;;;10.69;75.09;99595.97;6253744;22;45393;-90
2022/11/16 06:32:46;;;;;;;;;1.33;1.00;;;;;10.85;74.97;99624.56;6279974;22;46601;-89
2022/11/16 06:35:12;;;;;;;;;1.00;1.00;;;;;10.84;75.27;99628.09;6251319;22;45094;-86
2022/11/16 06:37:48;;;;;;;;;;;;;;;;;;;;;
2022/11/16 06:40:14;;;;;;;;;0.33;0.00;;;;;10.84;75.33;99628.97;6277083;22;72375;-88
2022/11/16 06:42:55;;;;;;;;;5.67;5.00;;;;;10.86;75.47;99627.16;6250583;22;46766;-86
2022/11/16 06:45:34;;;;;;;;;2.00;1.00;;;;;10.85;75.51;99625.41;6276908;22;45184;-87
2022/11/16 06:48:01;;;;;;;;;1.75;1.75;;;;;10.83;75.29;99627.25;6251308;22;45272;-87
2022/11/16 06:50:27;;;;;;;;;0.00;0.00;;;;;10.85;75.18;99614.03;6250899;22;45425;-85
2022/11/16 06:52:52;;;;;;;;;0.67;0.67;;;;;10.93;75.28;99630.50;6253665;22;47103;-85
2022/11/16 06:56:13;;;;;;;;;3.25;1.00;;;;;10.98;75.15;99632.13;6252745;22;45483;-87
2022/11/16 07:02:21;;;;;;;;;2.00;2.00;;;;;11.01;75.31;99629.44;6126949;23;45219;-87
2022/11/16 07:08:34;;;;;;;;;0.33;0.33;;;;;11.11;75.31;99626.59;6154774;23;45250;-94
2022/11/16 07:38:37;;;;;;;;;4.00;1.00;;;;;11.33;74.28;99619.00;6255864;22;45342;-85
2022/11/16 07:41:06;;;;;;;;;1.33;1.00;;;;;11.37;74.42;99625.94;6251591;22;47391;-84
2022/11/16 07:43:42;;;;;;;;;0.33;0.33;;;;;11.43;74.44;99631.91;6251604;22;45343;-84
2022/11/16 07:46:11;;;;;;;;;5.00;5.00;;;;;11.46;74.49;99628.34;6251191;22;45134;-84
2022/11/16 07:48:37;;;;;;;;;4.25;3.00;;;;;11.48;74.28;99637.09;6250469;22;45471;-84
2022/11/16 07:51:08;;;;;;;;;1.25;1.00;;;;;11.43;74.52;99615.25;6250681;22;47003;-82
2022/11/16 07:53:34;;;;;;;;;3.00;1.67;;;;;11.53;74.59;99629.06;6279308;22;45212;-81
2022/11/16 07:56:07;;;;;;;;;2.67;1.00;;;;;11.52;74.93;99619.41;6279235;22;45270;-90
2022/11/16 07:58:34;;;;;;;;;2.00;2.00;;;;;11.68;74.54;99639.19;6275267;22;45296;-82
2022/11/16 08:05:43;;;;;;;;;3.00;2.75;;;;;11.64;74.50;99614.69;6119447;23;45481;-83
2022/11/16 08:16:31;;;;;;;;;;;;;;;;;;;;;
2022/11/16 08:19:42;;;;;;;;;2.00;2.00;;;;;11.95;74.18;99632.38;5892644;24;71923;-82
2022/11/16 08:22:15;;;;;;;;;4.33;4.33;;;;;11.86;74.12;99616.78;5867346;24;45348;-82
2022/11/16 08:25:11;;;;;;;;;;;;;;;;;;;;;
2022/11/16 08:27:42;;;;;;;;;4.00;4.00;;;;;12.01;74.08;99628.69;5934316;23;74059;-84
2022/11/16 08:30:30;;;;;;;;;4.00;4.00;;;;;11.94;74.10;99620.06;5995909;23;45342;-83
2022/11/16 08:32:56;;;;;;;;;2.00;2.00;;;;;12.04;74.06;99642.66;6034307;23;45439;-83
2022/11/16 08:35:26;;;;;;;;;1.00;1.00;;;;;11.99;74.18;99627.88;6114299;23;45365;-83
2022/11/16 08:37:56;;;;;;;;;2.00;1.00;;;;;12.02;74.30;99630.41;6182693;23;46140;-83
2022/11/16 08:41:21;;;;;;;;;;;;;;;;;;;;;
2022/11/16 08:43:51;;;;;;;;;4.00;2.00;;;;;11.98;73.89;99621.75;6253871;22;69210;-83
2022/11/16 08:46:20;;;;;;;;;4.00;1.00;;;;;12.09;73.88;99640.75;6248342;22;45489;-82
2022/11/16 08:48:49;;;;;;;;;3.00;2.00;;;;;12.19;73.95;99643.13;6248755;22;47030;-83
2022/11/16 08:51:17;;;;;;;;;1.33;1.33;;;;;12.11;74.05;99617.84;6247423;22;45611;-83
2022/11/16 08:53:43;;;;;;;;;6.00;5.00;;;;;12.18;74.03;99613.25;6249307;22;45445;-83
2022/11/16 08:56:13;;;;;;;;;0.67;0.67;;;;;12.18;73.83;99615.88;6276638;22;45374;-83
2022/11/16 08:59:01;;;;;;;;;2.33;2.00;;;;;12.27;74.19;99628.84;6248185;22;48495;-82
2022/11/16 09:01:29;;;;;;;;;1.67;1.67;;;;;12.16;73.84;99607.16;6227142;22;45711;-79
2022/11/16 09:03:55;;;;;;;;;4.00;4.00;;;;;12.29;73.93;99631.41;6277094;22;45338;-82
2022/11/16 09:06:22;;;;;;;;;2.33;1.33;;;;;12.30;74.07;99614.69;6277927;22;45226;-80
2022/11/16 09:08:47;;;;;;;;;2.67;1.67;;;;;12.25;74.39;99598.97;6248656;22;47028;-82
2022/11/16 09:11:18;;;;;;;;;1.67;1.67;;;;;12.44;74.42;99619.56;6249132;22;45277;-88
2022/11/16 09:13:45;;;;;;;;;3.00;2.00;;;;;12.54;74.77;99610.47;6248925;22;45486;-83
2022/11/16 09:16:14;;;;;;;;;2.00;2.00;;;;;12.82;74.92;99614.88;6277437;22;45437;-83
2022/11/16 09:18:40;;;;;;;;;3.00;2.67;;;;;12.99;74.42;99617.84;6275719;22;45479;-82
2022/11/16 09:21:05;;;;;;;;;1.00;1.00;;;;;13.05;74.20;99601.81;6248104;22;45453;-84
2022/11/16 09:23:30;;;;;;;;;1.00;1.00;;;;;13.20;73.86;99609.25;6278916;22;45379;-79
2022/11/16 09:26:00;;;;;;;;;1.00;1.00;;;;;13.32;74.16;99618.59;6250933;22;45376;-82
2022/11/16 09:28:26;;;;;;;;;3.00;2.67;;;;;13.45;73.63;99617.25;6249606;22;46185;-83
2022/11/16 09:30:51;;;;;;;;;2.67;2.00;;;;;13.56;73.47;99603.66;6251239;22;45833;-87
2022/11/16 09:33:17;;;;;;;;;2.00;1.00;;;;;13.67;73.35;99614.75;6277694;22;45127;-86
2022/11/16 09:36:00;;;;;;;;;1.00;1.00;;;;;13.65;72.85;99602.47;6250999;22;45581;-90
2022/11/16 09:38:31;;;;;;;;;1.67;1.00;;;;;13.64;72.52;99595.47;6278683;22;45620;-85
2022/11/16 09:40:56;;;;;;;;;3.67;1.00;;;;;13.59;72.41;99592.13;6249700;22;45339;-86
2022/11/16 09:43:55;;;;;;;;;;;;;;;;;;;;;
2022/11/16 09:46:44;;;;;;;;;5.00;3.67;;;;;13.58;72.02;99583.34;6277386;22;72891;-87
2022/11/16 09:49:35;;;;;;;;;;;;;;;;;;;;;
2022/11/16 09:52:35;;;;;;;;;0.00;0.00;;;;;13.37;71.75;99568.22;6276728;22;73108;-87
2022/11/16 09:55:46;;;;;;;;;;;;;;;;;;;;;
2022/11/16 09:58:21;;;;;;;;;0.33;0.00;;;;;13.49;72.11;99578.34;6277469;22;72804;-87
2022/11/16 10:00:56;;;;;;;;;1.00;1.00;;;;;13.59;71.89;99597.41;6276857;22;46186;-88
2022/11/16 10:03:24;;;;;;;;;4.00;4.00;;;;;13.52;71.76;99575.59;6251122;22;45665;-88
2022/11/16 10:06:05;;;;;;;;;2.00;1.00;;;;;13.70;72.14;99589.09;6250784;22;45205;-84
2022/11/16 10:08:50;;;;;;;;;1.67;1.67;;;;;13.88;71.70;99593.75;6277944;22;45602;-86
2022/11/16 10:11:42;;;;;;;;;3.00;2.00;;;;;14.01;71.27;99589.75;6251346;22;47082;-83
2022/11/16 10:14:21;;;;;;;;;3.00;2.00;;;;;14.09;71.33;99594.75;6250813;22;45332;-83
2022/11/16 10:17:16;;;;;;;;;0.67;0.67;;;;;14.13;70.86;99599.00;6274284;22;45220;-81
2022/11/16 10:20:18;;;;;;;;;5.00;5.00;;;;;14.21;70.29;99598.72;6277056;22;45223;-91
2022/11/16 10:23:36;;;;;;;;;3.67;1.00;;;;;14.26;70.40;99599.41;6250375;22;46704;-86
2022/11/16 10:26:45;;;;;;;;;1.00;1.00;;;;;14.71;69.90;99619.81;6274306;22;45179;-82
2022/11/16 10:29:26;;;;;;;;;0.00;0.00;;;;;15.04;68.54;99596.41;6249807;22;45442;-83
2022/11/16 10:32:13;;;;;;;;;1.00;1.00;;;;;15.10;67.77;99616.50;6278590;22;45442;-83
2022/11/16 10:34:50;;;;;;;;;1.33;1.00;;;;;15.06;67.39;99604.31;6250260;22;47279;-83
2022/11/16 10:37:16;;;;;;;;;3.00;0.67;;;;;15.00;67.03;99597.47;6250554;22;45453;-83
2022/11/16 10:39:41;;;;;;;;;2.00;2.00;;;;;15.08;66.76;99607.75;6251077;22;45392;-82
2022/11/16 10:42:16;;;;;;;;;1.00;1.00;;;;;14.97;66.43;99603.75;6250068;22;45562;-83
2022/11/16 10:44:48;;;;;;;;;1.67;1.00;;;;;14.96;66.78;99606.44;6248879;22;47158;-82
2022/11/16 10:47:21;;;;;;;;;3.00;1.67;;;;;14.85;66.43;99587.47;6276698;22;45313;-80
2022/11/16 10:50:01;;;;;;;;;3.00;3.00;;;;;14.84;66.39;99583.97;6276698;22;45414;-84
2022/11/16 10:52:27;;;;;;;;;2.33;2.00;;;;;14.82;66.59;99585.81;6277665;22;45413;-84
2022/11/16 10:55:32;;;;;;;;;;;;;;;;;;;;;
2022/11/16 10:58:05;;;;;;;;;3.33;2.67;;;;;14.87;66.64;99578.53;6277101;22;71650;-82
2022/11/16 11:00:41;;;;;;;;;1.00;1.00;;;;;14.96;66.79;99554.31;6250282;22;45367;-84
2022/11/16 11:03:09;;;;;;;;;1.00;1.00;;;;;15.64;67.11;99559.44;6251054;22;45453;-83
2022/11/16 11:05:36;;;;;;;;;2.00;2.00;;;;;15.98;65.16;99557.94;6250381;22;47296;-85
2022/11/16 11:09:07;;;;;;;;;;;;;;;;;;;;;
2022/11/16 11:18:51;;;;;;;;;2.67;2.00;;;;;16.34;62.44;99531.50;6193279;22;45431;-84
2022/11/16 11:21:19;;;;;;;;;3.00;1.67;;;;;16.32;62.05;99538.69;6278072;22;45327;-84
2022/11/16 11:23:51;;;;;;;;;4.00;2.67;;;;;16.15;62.06;99534.16;6250688;22;45292;-84
2022/11/16 11:26:35;;;;;;;;;4.00;1.67;;;;;15.98;61.65;99526.94;6250444;22;46199;-84
2022/11/16 11:29:23;;;;;;;;;1.00;1.00;;;;;15.81;61.72;99516.25;6281600;22;45478;-85
2022/11/16 11:31:52;;;;;;;;;2.67;2.67;;;;;15.81;62.27;99502.97;6279622;22;45316;-85
2022/11/16 11:34:24;;;;;;;;;1.00;1.00;;;;;15.91;62.47;99504.28;6278186;22;45217;-84
2022/11/16 11:37:00;;;;;;;;;3.33;2.00;;;;;17.14;62.19;99509.91;6254617;22;45414;-85
2022/11/16 11:39:33;;;;;;;;;2.00;1.00;;;;;17.55;60.44;99511.38;6250504;22;48336;-82
2022/11/16 11:42:13;;;;;;;;;3.67;2.00;;;;;17.36;59.27;99516.78;6250452;22;45301;-84
2022/11/16 11:44:43;;;;;;;;;2.00;2.00;;;;;17.14;58.74;99514.38;6279466;22;45378;-86
2022/11/16 11:47:19;;;;;;;;;1.33;1.33;;;;;17.02;59.18;99497.22;6278224;22;45309;-86
2022/11/16 11:49:51;;;;;;;;;1.00;1.00;;;;;17.00;59.13;99504.44;6277502;22;46308;-84
2022/11/16 11:52:25;;;;;;;;;3.33;2.33;;;;;17.10;58.82;99507.47;6249989;22;45353;-85
2022/11/16 11:54:53;;;;;;;;;1.33;1.33;;;;;17.01;58.68;99510.59;6276876;22;45283;-84
2022/11/16 11:57:22;;;;;;;;;2.00;2.00;;;;;16.83;58.45;99513.22;6250105;22;45503;-85
2022/11/16 11:59:51;;;;;;;;;2.00;1.00;;;;;16.58;58.43;99508.22;6279631;22;46455;-86
2022/11/16 12:02:38;;;;;;;;;3.67;2.00;;;;;16.44;58.65;99500.94;6281742;22;45521;-86
2022/11/16 12:05:27;;;;;;;;;2.00;2.00;;;;;16.42;59.03;99493.97;6278900;22;45284;-84
2022/11/16 12:08:20;;;;;;;;;3.67;3.33;;;;;16.47;58.68;99511.41;6248695;22;45376;-86
2022/11/16 12:10:54;;;;;;;;;2.00;2.00;;;;;16.37;58.92;99495.97;6249021;22;48435;-86
2022/11/16 12:13:35;;;;;;;;;3.00;2.00;;;;;16.44;59.44;99505.34;6277354;22;45342;-83
2022/11/16 12:16:12;;;;;;;;;3.00;2.00;;;;;16.48;59.02;99501.63;6248222;22;45268;-84
2022/11/16 12:18:54;;;;;;;;;4.67;3.33;;;;;16.38;58.86;99495.88;6283831;22;45350;-83
2022/11/16 12:21:43;;;;;;;;;1.33;1.00;;;;;16.26;58.96;99475.25;6249935;22;47293;-84
2022/11/16 12:24:16;;;;;;;;;3.00;2.33;;;;;16.36;58.97;99491.56;6249597;22;45654;-85
2022/11/16 12:26:57;;;;;;;;;5.67;3.67;;;;;16.38;58.84;99487.06;6277584;22;45378;-85
2022/11/16 12:29:30;;;;;;;;;2.00;1.33;;;;;16.46;59.34;99468.94;6275536;22;45228;-81
2022/11/16 12:32:33;;;;;;;;;5.00;3.00;;;;;16.73;58.88;99480.03;6246794;22;47967;-84
2022/11/16 12:35:29;;;;;;;;;3.00;2.00;;;;;16.76;58.34;99474.59;6125454;23;45428;-92
2022/11/16 12:38:18;;;;;;;;;4.33;4.00;;;;;16.77;58.32;99465.69;6127004;23;45785;-82
2022/11/16 12:41:12;;;;;;;;;2.67;2.67;;;;;16.77;58.00;99471.00;6249900;22;45343;-84
2022/11/16 12:43:58;;;;;;;;;4.00;4.00;;;;;16.70;58.13;99451.81;6174051;22;48409;-86
2022/11/16 12:46:52;;;;;;;;;2.00;1.00;;;;;16.65;58.25;99451.19;6251398;22;45399;-87
2022/11/16 12:49:24;;;;;;;;;4.00;4.00;;;;;16.70;58.15;99446.47;6284270;22;44680;-89
2022/11/16 12:51:55;;;;;;;;;2.33;2.33;;;;;16.77;57.86;99452.41;6287315;22;45441;-92
2022/11/16 12:54:49;;;;;;;;;2.33;1.33;;;;;16.74;57.57;99448.06;6257311;22;47161;-93
2022/11/16 12:57:25;;;;;;;;;3.67;3.00;;;;;16.71;57.85;99460.66;6257541;22;45762;-89
2022/11/16 13:00:11;;;;;;;;;2.00;1.67;;;;;16.54;57.55;99448.19;6253517;22;45443;-85
2022/11/16 13:03:02;;;;;;;;;3.33;1.67;;;;;16.38;57.68;99448.06;6278390;22;45702;-85
2022/11/16 13:05:47;;;;;;;;;3.00;2.00;;;;;16.19;57.94;99455.22;6248223;22;46082;-83
2022/11/16 13:08:17;;;;;;;;;4.00;4.00;;;;;16.05;58.36;99447.91;6250703;22;45296;-85
2022/11/16 13:10:47;;;;;;;;;4.00;2.00;;;;;15.84;58.55;99424.06;6276686;22;45283;-84
2022/11/16 13:13:28;;;;;;;;;2.00;1.00;;;;;15.84;58.74;99439.13;6249923;22;45197;-84
2022/11/16 13:15:55;;;;;;;;;5.67;4.67;;;;;15.78;59.32;99437.63;6250337;22;46411;-84
2022/11/16 13:18:22;;;;;;;;;3.67;3.67;;;;;15.75;59.05;99429.81;6278294;22;45241;-83
2022/11/16 13:20:53;;;;;;;;;6.67;3.33;;;;;15.72;59.57;99422.00;6250400;22;45205;-84
2022/11/16 13:23:30;;;;;;;;;3.00;2.33;;;;;15.68;59.61;99425.69;6248898;22;45276;-84
2022/11/16 13:26:21;;;;;;;;;3.00;3.00;;;;;15.65;59.61;99415.22;6278259;22;46260;-85
2022/11/16 13:28:52;;;;;;;;;5.67;5.00;;;;;15.62;59.58;99405.59;6249585;22;45888;-83
2022/11/16 13:31:27;;;;;;;;;3.00;2.00;;;;;15.58;59.48;99403.16;6249762;22;45326;-83
2022/11/16 13:34:01;;;;;;;;;2.67;2.67;;;;;15.52;59.94;99391.03;6277404;22;45449;-84
2022/11/16 13:36:53;;;;;;;;;7.00;4.00;;;;;15.45;60.26;99384.31;6249115;22;47009;-85
2022/11/16 13:39:39;;;;;;;;;4.00;3.67;;;;;15.43;60.11;99373.75;6250160;22;45813;-86
2022/11/16 13:42:20;;;;;;;;;4.00;4.00;;;;;15.37;60.58;99354.59;6278600;22;45319;-86
2022/11/16 13:44:46;;;;;;;;;4.33;4.33;;;;;15.28;60.67;99347.94;6252418;22;45399;-84
2022/11/16 13:47:23;;;;;;;;;3.67;2.67;;;;;15.32;60.77;99365.44;6279279;22;45555;-87
2022/11/16 13:49:55;;;;;;;;;1.00;1.00;;;;;15.27;61.12;99372.75;6250545;22;46100;-83
2022/11/16 13:52:21;;;;;;;;;3.00;2.00;;;;;15.21;61.53;99376.53;6277692;22;45310;-83
2022/11/16 13:54:52;;;;;;;;;1.33;1.33;;;;;15.12;61.89;99363.66;6277870;22;45331;-84
2022/11/16 13:57:29;;;;;;;;;1.00;1.00;;;;;15.14;62.22;99372.41;6249947;22;46935;-83
2022/11/16 14:00:00;;;;;;;;;5.00;3.33;;;;;15.07;61.93;99370.97;6275302;22;45318;-84